CW4635 Victoria BC CA current weather conditions

sailwx.info

Wind from 112 at 3 knots gusting 6

Air temperature 17.8° C
Dewpoint 11.8° C

Last reported at 2020-Aug-09 17:00 UTC.
Time now 2020-Aug-09 18:14 UTC

Location: N 48°25' W 123°29'.
View on Google Maps.

See reports from other nearby stations

  
Tides and Currents Weather Stations Pressure Air Temp Water Temp Dewpoint Dewpoint Depression Visibility Wind Speed Wind Dir Waves Ship Positions
date/time (UTC)wind fromknots sea level pressurealtimeterstation pressurevisibilityair tempwater tempwave heightnotes
2020-Aug-09 17:00 112 3 gusting 6 17.8
2020-Aug-09 16:45 064 0 gusting 4 17.8
2020-Aug-09 16:30 081 0 gusting 3 17.2
2020-Aug-09 16:15 038 16.7
2020-Aug-09 16:00 086 0 gusting 2 16.1
2020-Aug-09 15:46 055 16.7
2020-Aug-09 15:31 049 15.6
2020-Aug-09 15:16 035 0 gusting 2 15.6
2020-Aug-09 15:03 111 14.4
2020-Aug-09 14:45 117 0 gusting 3 14.4
2020-Aug-09 14:31 190 15.6
2020-Aug-09 14:19 190 14.4
2020-Aug-09 14:01 190 13.3
2020-Aug-09 13:46 190 13.3
2020-Aug-09 13:31 190 12.8
2020-Aug-09 13:16 237 1 gusting 4 12.8
2020-Aug-09 13:01 223 2 gusting 4 12.8
2020-Aug-09 12:46 242 2 gusting 3 12.8
2020-Aug-09 12:31 263 12.8
2020-Aug-09 12:16 263 12.8
2020-Aug-09 12:02 263 12.8
2020-Aug-09 11:45 263 12.8
2020-Aug-09 11:31 263 12.8
2020-Aug-09 11:15 250 0 gusting 2 12.8
2020-Aug-09 11:00 301 12.8
2020-Aug-09 10:46 301 0 gusting 2 13.3
2020-Aug-09 10:30 232 2 gusting 4 12.8
2020-Aug-09 10:15 214 0 gusting 1 12.8
2020-Aug-09 10:01 210 13.3
2020-Aug-09 09:45 210 13.3
2020-Aug-09 09:31 210 13.3
2020-Aug-09 09:15 210 13.3
2020-Aug-09 09:01 200 13.3
2020-Aug-09 08:45 216 13.9
2020-Aug-09 08:30 216 13.9
2020-Aug-09 08:16 216 14.4
2020-Aug-09 08:00 228 0 gusting 3 14.4
2020-Aug-09 07:46 187 0 gusting 2 14.4
2020-Aug-09 07:31 220 14.4
2020-Aug-09 07:15 277 15.0
2020-Aug-09 07:00 274 15.0
2020-Aug-09 06:45 248 15.0
2020-Aug-09 06:30 248 15.6
2020-Aug-09 06:15 248 15.6
2020-Aug-09 06:00 253 4 gusting 6 16.1
2020-Aug-09 05:45 239 2 gusting 6 16.1
2020-Aug-09 05:30 296 15.6
2020-Aug-09 05:15 296 16.1
2020-Aug-09 05:00 225 16.1
2020-Aug-09 04:45 275 2 gusting 6 16.1
2020-Aug-09 04:30 266 1 gusting 6 16.1
2020-Aug-09 04:15 274 1 gusting 6 16.7
2020-Aug-09 04:00 300 2 gusting 5 16.7
2020-Aug-09 03:45 228 1 gusting 5 17.2
2020-Aug-09 03:30 246 2 gusting 6 17.2
2020-Aug-09 03:15 242 16.7
2020-Aug-09 03:00 081 17.2
2020-Aug-09 02:45 081 0 gusting 2 18.9
2020-Aug-09 02:30 180 0 gusting 2 20.0
2020-Aug-09 02:15 103 19.4
2020-Aug-09 02:00 103 19.4
2020-Aug-09 01:45 355 0 gusting 2 20.0
2020-Aug-09 01:30 009 0 gusting 1 19.4
2020-Aug-09 01:15 336 0 gusting 3 19.4
2020-Aug-09 01:00 019 0 gusting 2 18.3
2020-Aug-09 00:45 084 0 gusting 4 18.9
2020-Aug-09 00:30 013 0 gusting 3 18.3
2020-Aug-09 00:15 039 1 gusting 5 17.8
2020-Aug-09 00:00 056 3 gusting 6 17.8
2020-Aug-08 23:46 067 0 gusting 4 17.2
2020-Aug-08 23:32 109 3 gusting 7 18.3
2020-Aug-08 23:18 082 1 gusting 6 17.8
2020-Aug-08 23:02 082 2 gusting 6 17.2
2020-Aug-08 22:46 113 3 gusting 8 17.8
2020-Aug-08 22:31 129 5 gusting 7 18.3
2020-Aug-08 22:16 044 2 gusting 6 18.9
2020-Aug-08 22:02 019 1 gusting 6 18.9
2020-Aug-08 21:48 074 3 gusting 7 20.0
2020-Aug-08 21:31 240 3 gusting 9 20.6
2020-Aug-08 21:16 191 3 gusting 7 20.6
2020-Aug-08 21:02 236 2 gusting 7 20.0
2020-Aug-08 20:45 235 6 gusting 11 20.0
2020-Aug-08 20:31 223 4 gusting 11 20.0
2020-Aug-08 20:15 252 1 gusting 8 20.0
2020-Aug-08 20:01 320 0 gusting 7 20.0
2020-Aug-08 19:46 150 3 gusting 7 20.0
2020-Aug-08 19:31 315 2 gusting 5 20.0
2020-Aug-08 19:17 024 1 gusting 4 20.0
2020-Aug-08 19:00 345 2 gusting 7 19.4
2020-Aug-08 18:46 063 1 gusting 4 19.4
2020-Aug-08 18:31 005 19.4
2020-Aug-08 18:16 351 3 gusting 5 18.9
2020-Aug-08 18:01 300 1 gusting 5 18.3
2020-Aug-08 17:46 302 2 gusting 6 18.3
2020-Aug-08 17:31 022 1 gusting 5 19.4
2020-Aug-08 17:16 330 0 gusting 3 18.3
2020-Aug-08 17:00 025 0 gusting 2 17.8
2020-Aug-08 16:45 046 0 gusting 2 17.2
2020-Aug-08 16:31 355 0 gusting 3 17.2
2020-Aug-08 16:15 347 1 gusting 4 16.1
2020-Aug-08 16:00 075 1 gusting 4 15.6
2020-Aug-08 15:45 124 2 gusting 4 15.0
2020-Aug-08 15:30 133 0 gusting 5 15.6
2020-Aug-08 15:15 317 15.6
2020-Aug-08 15:00 240 15.0
2020-Aug-08 14:45 272 14.4
2020-Aug-08 14:30 242 13.9
2020-Aug-08 14:15 232 13.9
2020-Aug-08 14:00 173 13.9
2020-Aug-08 13:33 184 13.9
2020-Aug-08 13:16 157 13.9
2020-Aug-08 13:01 115 13.9
2020-Aug-08 12:46 117 13.9
2020-Aug-08 12:31 126 13.9
2020-Aug-08 12:17 126 13.9
2020-Aug-08 12:01 123 0 gusting 2 13.9
2020-Aug-08 11:48 189 13.9
2020-Aug-08 11:31 184 13.9
2020-Aug-08 11:16 138 13.9
2020-Aug-08 11:02 148 14.4
2020-Aug-08 10:46 129 14.4
2020-Aug-08 10:32 129 13.9
2020-Aug-08 10:16 128 14.4
2020-Aug-08 10:01 128 14.4
2020-Aug-08 09:46 126 0 gusting 3 14.4
2020-Aug-08 09:30 081 0 gusting 1 14.4
2020-Aug-08 09:16 081 13.9
2020-Aug-08 09:02 080 13.9
2020-Aug-08 08:46 080 14.4
2020-Aug-08 08:30 080 14.4
2020-Aug-08 08:16 080 14.4
2020-Aug-08 08:01 034 14.4
2020-Aug-08 07:46 348 14.4
2020-Aug-08 07:31 348 14.4
2020-Aug-08 07:16 268 14.4
2020-Aug-08 07:01 268 14.4
2020-Aug-08 06:46 268 14.4
2020-Aug-08 06:32 268 14.4
2020-Aug-08 06:16 268 14.4
2020-Aug-08 06:01 344 13.9
2020-Aug-08 05:45 049 13.9
2020-Aug-08 05:32 049 13.9
2020-Aug-08 05:17 049 13.9
2020-Aug-08 05:01 049 13.9
2020-Aug-08 04:46 049 13.9
2020-Aug-08 04:31 049 1 gusting 3 15.0
2020-Aug-08 04:15 262 15.6
2020-Aug-08 04:01 262 15.6
2020-Aug-08 03:46 262 15.6
2020-Aug-08 03:31 262 15.6
2020-Aug-08 03:15 262 15.6
2020-Aug-08 03:01 262 0 gusting 2 15.6
2020-Aug-08 02:46 282 0 gusting 3 16.1
2020-Aug-08 02:31 277 0 gusting 3 15.6
2020-Aug-08 02:15 280 1 gusting 4 15.6
2020-Aug-08 02:01 283 1 gusting 4 15.6
2020-Aug-08 01:46 246 1 gusting 4 15.6
2020-Aug-08 01:30 292 0 gusting 3 16.1
2020-Aug-08 01:15 281 0 gusting 4 16.1
2020-Aug-08 01:00 241 16.1
2020-Aug-08 00:45 283 1 gusting 5 16.1
2020-Aug-08 00:30 238 1 gusting 4 16.7
2020-Aug-08 00:15 207 0 gusting 6 17.2
2020-Aug-08 00:00 214 1 gusting 6 17.2
2020-Aug-07 23:46 233 0 gusting 5 17.8
2020-Aug-07 23:30 142 1 gusting 6 17.8
2020-Aug-07 23:15 125 1 gusting 5 17.8
2020-Aug-07 23:01 152 2 gusting 6 17.2
2020-Aug-07 22:45 127 1 gusting 8 17.2
2020-Aug-07 22:30 136 2 gusting 9 17.2
2020-Aug-07 22:15 105 3 gusting 7 17.2
2020-Aug-07 22:00 140 3 gusting 7 16.7
2020-Aug-07 21:45 167 3 gusting 6 16.7
2020-Aug-07 21:30 135 2 gusting 7 16.7
2020-Aug-07 21:15 140 3 gusting 9 16.7
2020-Aug-07 21:00 153 5 gusting 9 16.7
2020-Aug-07 20:45 140 4 gusting 8 16.1
2020-Aug-07 20:30 112 5 gusting 9 16.7
2020-Aug-07 20:15 144 5 gusting 9 16.1
2020-Aug-07 20:00 133 4 gusting 9 16.1
2020-Aug-07 19:45 136 2 gusting 11 16.1
2020-Aug-07 19:30 116 6 gusting 9 15.6
2020-Aug-07 19:15 132 6 gusting 12 15.6
2020-Aug-07 19:00 141 3 gusting 11 15.6
2020-Aug-07 18:45 186 3 gusting 7 15.6
2020-Aug-07 18:30 117 5 gusting 10 16.1
2020-Aug-07 18:15 117 6 gusting 10 16.1
2020-Aug-07 18:00 055 3 gusting 11 16.1